Bavaria

Go HERE for most recent data if this page is not up to date.

Jump to table bottom
Date Time Temp F RH % AVG Wind Max Wind Wind Dir 24 Snow Depth
*01/24/22 05 17.7 50 14 20 W - 258 0.5 48.0
*01/24/22 04 18.6 48 15 22 NW - 303 0.4 48.1
*01/24/22 03 19.2 44 14 20 W - 255 0.4 48.2
*01/24/22 02 19.3 43 14 21 W - 290 0.4 48.0
*01/24/22 01 19.8 39 15 20 W - 272 0.5 47.9
*01/24/22 00 20.7 37 10 19 W - 290 0.4 47.9
*01/23/22 23 21.9 33 14 21 W - 253 0.4 48.0
*01/23/22 22 22.3 35 13 20 W - 264 0.3 48.0
*01/23/22 21 22.9 35 15 23 W - 262 0.1 48.0
*01/23/22 20 24.1 35 13 20 SW - 243 0.2 48.0
*01/23/22 19 24.5 35 16 32 W - 274 0.1 48.0
*01/23/22 18 25.4 32 19 33 W - 286 0.2 48.1
*01/23/22 17 25.6 34 17 31 W - 251 0.1 48.1
*01/23/22 16 25.2 34 15 29 NW - 311 0.2 48.3
*01/23/22 15 25.8 34 17 25 W - 277 0.0 48.0
*01/23/22 14 27.6 35 14 23 W - 273 -0.0 48.1
*01/23/22 13 26.9 33 14 23 W - 278 -0.0 48.1
*01/23/22 12 26.0 37 8 19 W - 275 -0.0 47.5
*01/23/22 11 26.0 40 5 9 NE - 36 0.0 47.9
*01/23/22 10 26.0 38 5 10 NE - 38 0.0 47.6
*01/23/22 09 25.6 42 3 9 NE - 33 0.0 48.3
*01/23/22 08 23.6 49 4 9 E - 81 0.3 48.2
*01/23/22 07 21.8 60 6 11 NE - 37 0.2 48.4
*01/23/22 06 20.5 68 6 11 NE - 56 0.1 48.5
*01/23/22 05 21.7 74 4 9 S - 179 0.2 48.4
*01/23/22 04 20.2 72 5 14 NW - 295 0.2 48.3
*01/23/22 03 20.8 77 5 15 SW - 208 0.3 48.8
*01/23/22 02 20.7 73 6 11 NE - 36 0.2 48.6
*01/23/22 01 22.1 71 6 9 N - 6 0.2 48.5
*01/23/22 00 22.5 76 4 8 NE - 30 0.3 48.7
.